sensor_id;sensor_type;location;lat;lon;timestamp;pressure;altitude;pressure_sealevel;temperature;humidity
43741;BME280;29352;48.708;9.290;2023-06-22T00:00:55;97856.13;;;14.72;82.43
43741;BME280;29352;48.708;9.290;2023-06-22T00:03:22;97852.72;;;14.42;82.23
43741;BME280;29352;48.708;9.290;2023-06-22T00:05:50;97853.13;;;14.51;82.76
43741;BME280;29352;48.708;9.290;2023-06-22T00:08:17;97853.13;;;14.68;82.40
43741;BME280;29352;48.708;9.290;2023-06-22T00:10:44;97856.44;;;14.41;83.49
43741;BME280;29352;48.708;9.290;2023-06-22T00:13:12;97861.75;;;14.25;83.84
43741;BME280;29352;48.708;9.290;2023-06-22T00:15:41;97852.41;;;14.27;84.27
43741;BME280;29352;48.708;9.290;2023-06-22T00:18:07;97844.00;;;14.52;83.24
43741;BME280;29352;48.708;9.290;2023-06-22T00:20:34;97843.47;;;14.38;83.77
43741;BME280;29352;48.708;9.290;2023-06-22T00:23:03;97854.13;;;13.88;85.49
43741;BME280;29352;48.708;9.290;2023-06-22T00:25:39;97857.72;;;13.93;85.22
43741;BME280;29352;48.708;9.290;2023-06-22T00:28:08;97862.25;;;14.22;84.04
43741;BME280;29352;48.708;9.290;2023-06-22T00:30:35;97860.25;;;14.00;84.14
43741;BME280;29352;48.708;9.290;2023-06-22T00:33:01;97861.41;;;14.04;84.71
43741;BME280;29352;48.708;9.290;2023-06-22T00:35:27;97855.38;;;13.97;84.29
43741;BME280;29352;48.708;9.290;2023-06-22T00:37:56;97854.88;;;14.00;83.98
43741;BME280;29352;48.708;9.290;2023-06-22T00:40:27;97857.81;;;13.99;84.32
43741;BME280;29352;48.708;9.290;2023-06-22T00:42:54;97843.66;;;14.03;84.26
43741;BME280;29352;48.708;9.290;2023-06-22T00:45:20;97843.38;;;14.16;83.84
43741;BME280;29352;48.708;9.290;2023-06-22T00:47:51;97838.41;;;13.80;85.05
43741;BME280;29352;48.708;9.290;2023-06-22T00:50:22;97829.53;;;14.25;83.61
43741;BME280;29352;48.708;9.290;2023-06-22T00:52:55;97840.41;;;14.01;84.03
43741;BME280;29352;48.708;9.290;2023-06-22T00:55:24;97857.41;;;13.78;85.35
43741;BME280;29352;48.708;9.290;2023-06-22T00:57:52;97840.72;;;13.88;85.07
43741;BME280;29352;48.708;9.290;2023-06-22T01:00:23;97847.63;;;13.72;85.41
43741;BME280;29352;48.708;9.290;2023-06-22T01:02:51;97860.69;;;13.80;85.55
43741;BME280;29352;48.708;9.290;2023-06-22T01:05:19;97867.44;;;14.11;83.69
43741;BME280;29352;48.708;9.290;2023-06-22T01:07:58;97860.56;;;13.75;85.63
43741;BME280;29352;48.708;9.290;2023-06-22T01:10:36;97870.91;;;13.19;87.59
43741;BME280;29352;48.708;9.290;2023-06-22T01:13:32;97875.78;;;13.22;87.02
43741;BME280;29352;48.708;9.290;2023-06-22T01:16:17;97880.94;;;13.12;87.68
43741;BME280;29352;48.708;9.290;2023-06-22T01:18:52;97885.69;;;13.34;87.04
43741;BME280;29352;48.708;9.290;2023-06-22T01:21:25;97886.75;;;13.09;87.98
43741;BME280;29352;48.708;9.290;2023-06-22T01:29:22;97856.22;;;13.10;87.90
43741;BME280;29352;48.708;9.290;2023-06-22T01:34:21;97875.19;;;12.85;87.73
43741;BME280;29352;48.708;9.290;2023-06-22T01:36:50;97874.13;;;12.74;88.79
43741;BME280;29352;48.708;9.290;2023-06-22T01:39:18;97858.75;;;12.70;89.44
43741;BME280;29352;48.708;9.290;2023-06-22T01:41:44;97847.81;;;13.42;86.46
43741;BME280;29352;48.708;9.290;2023-06-22T01:44:13;97851.09;;;12.73;89.41
43741;BME280;29352;48.708;9.290;2023-06-22T01:46:39;97856.47;;;12.97;86.93
43741;BME280;29352;48.708;9.290;2023-06-22T01:49:06;97859.34;;;12.84;87.80
43741;BME280;29352;48.708;9.290;2023-06-22T01:51:32;97857.63;;;13.01;88.12
43741;BME280;29352;48.708;9.290;2023-06-22T01:53:58;97845.34;;;13.40;86.32
43741;BME280;29352;48.708;9.290;2023-06-22T01:56:24;97842.16;;;13.15;87.11
43741;BME280;29352;48.708;9.290;2023-06-22T02:02:02;97868.44;;;13.30;87.30
43741;BME280;29352;48.708;9.290;2023-06-22T02:04:37;97866.09;;;12.63;89.50
43741;BME280;29352;48.708;9.290;2023-06-22T02:07:14;97854.47;;;12.92;89.96
43741;BME280;29352;48.708;9.290;2023-06-22T02:09:45;97847.16;;;12.99;87.90
43741;BME280;29352;48.708;9.290;2023-06-22T02:12:18;97864.13;;;12.82;89.57
43741;BME280;29352;48.708;9.290;2023-06-22T02:14:48;97872.19;;;12.40;90.83
43741;BME280;29352;48.708;9.290;2023-06-22T02:17:16;97871.31;;;12.16;92.64
43741;BME280;29352;48.708;9.290;2023-06-22T02:19:42;97877.31;;;12.11;93.31
43741;BME280;29352;48.708;9.290;2023-06-22T02:22:08;97873.19;;;12.15;92.83
43741;BME280;29352;48.708;9.290;2023-06-22T02:24:34;97879.41;;;12.09;93.88
43741;BME280;29352;48.708;9.290;2023-06-22T02:27:01;97877.72;;;11.96;95.10
43741;BME280;29352;48.708;9.290;2023-06-22T02:29:28;97872.03;;;11.93;95.59
43741;BME280;29352;48.708;9.290;2023-06-22T02:31:54;97864.69;;;12.18;93.74
43741;BME280;29352;48.708;9.290;2023-06-22T02:34:21;97855.31;;;12.09;94.54
43741;BME280;29352;48.708;9.290;2023-06-22T02:36:48;97864.16;;;12.28;94.29
43741;BME280;29352;48.708;9.290;2023-06-22T02:39:23;97868.84;;;12.14;94.17
43741;BME280;29352;48.708;9.290;2023-06-22T02:41:50;97855.16;;;12.22;93.54
43741;BME280;29352;48.708;9.290;2023-06-22T02:44:17;97853.91;;;12.37;92.63
43741;BME280;29352;48.708;9.290;2023-06-22T02:46:44;97851.53;;;12.59;90.41
43741;BME280;29352;48.708;9.290;2023-06-22T02:49:11;97844.78;;;12.68;91.46
43741;BME280;29352;48.708;9.290;2023-06-22T02:51:44;97839.41;;;12.68;91.31
43741;BME280;29352;48.708;9.290;2023-06-22T02:54:11;97843.84;;;12.86;90.74
43741;BME280;29352;48.708;9.290;2023-06-22T02:56:37;97838.00;;;12.65;90.95
43741;BME280;29352;48.708;9.290;2023-06-22T02:59:02;97834.47;;;12.29;92.77
43741;BME280;29352;48.708;9.290;2023-06-22T03:01:29;97829.38;;;12.40;91.54
43741;BME280;29352;48.708;9.290;2023-06-22T03:03:58;97832.97;;;12.34;91.85
43741;BME280;29352;48.708;9.290;2023-06-22T03:06:24;97833.56;;;12.36;92.04
43741;BME280;29352;48.708;9.290;2023-06-22T03:08:58;97827.66;;;12.45;91.28
43741;BME280;29352;48.708;9.290;2023-06-22T03:11:25;97821.94;;;12.42;92.15
43741;BME280;29352;48.708;9.290;2023-06-22T03:13:51;97820.03;;;12.30;92.60
43741;BME280;29352;48.708;9.290;2023-06-22T03:16:18;97811.84;;;12.67;90.82
43741;BME280;29352;48.708;9.290;2023-06-22T03:18:44;97816.16;;;12.57;89.92
43741;BME280;29352;48.708;9.290;2023-06-22T03:21:10;97823.56;;;12.31;91.96
43741;BME280;29352;48.708;9.290;2023-06-22T03:23:35;97821.50;;;12.45;89.39
43741;BME280;29352;48.708;9.290;2023-06-22T03:26:02;97825.34;;;12.49;89.61
43741;BME280;29352;48.708;9.290;2023-06-22T03:28:27;97830.38;;;12.27;90.39
43741;BME280;29352;48.708;9.290;2023-06-22T03:30:53;97824.81;;;12.28;90.75
43741;BME280;29352;48.708;9.290;2023-06-22T03:33:18;97828.13;;;12.12;90.59
43741;BME280;29352;48.708;9.290;2023-06-22T03:35:44;97830.22;;;12.10;90.87
43741;BME280;29352;48.708;9.290;2023-06-22T03:38:09;97825.03;;;12.15;90.51
43741;BME280;29352;48.708;9.290;2023-06-22T03:40:35;97827.53;;;12.40;89.80
43741;BME280;29352;48.708;9.290;2023-06-22T03:43:00;97826.59;;;12.35;89.41
43741;BME280;29352;48.708;9.290;2023-06-22T03:45:25;97827.34;;;12.23;89.17
43741;BME280;29352;48.708;9.290;2023-06-22T03:47:51;97827.06;;;12.43;90.17
43741;BME280;29352;48.708;9.290;2023-06-22T03:50:16;97825.94;;;12.74;89.42
43741;BME280;29352;48.708;9.290;2023-06-22T03:52:42;97823.25;;;12.74;88.76
43741;BME280;29352;48.708;9.290;2023-06-22T03:55:07;97832.94;;;13.22;87.34
43741;BME280;29352;48.708;9.290;2023-06-22T03:57:33;97825.34;;;12.49;88.95
43741;BME280;29352;48.708;9.290;2023-06-22T03:59:59;97821.97;;;13.24;86.70
43741;BME280;29352;48.708;9.290;2023-06-22T04:02:25;97824.03;;;13.34;85.25
43741;BME280;29352;48.708;9.290;2023-06-22T04:04:50;97825.47;;;13.65;85.07
43741;BME280;29352;48.708;9.290;2023-06-22T04:07:16;97821.34;;;14.31;82.77
43741;BME280;29352;48.708;9.290;2023-06-22T04:09:43;97822.19;;;14.32;82.58
43741;BME280;29352;48.708;9.290;2023-06-22T04:12:08;97809.53;;;15.00;80.75
43741;BME280;29352;48.708;9.290;2023-06-22T04:14:34;97812.81;;;15.02;79.84
43741;BME280;29352;48.708;9.290;2023-06-22T04:17:01;97803.63;;;15.36;78.76
43741;BME280;29352;48.708;9.290;2023-06-22T04:19:26;97803.66;;;15.64;78.33
43741;BME280;29352;48.708;9.290;2023-06-22T04:21:52;97797.13;;;15.32;78.82
43741;BME280;29352;48.708;9.290;2023-06-22T04:24:17;97797.41;;;15.80;78.51
43741;BME280;29352;48.708;9.290;2023-06-22T04:26:43;97797.06;;;15.98;77.13
43741;BME280;29352;48.708;9.290;2023-06-22T04:29:10;97793.81;;;15.96;78.49
43741;BME280;29352;48.708;9.290;2023-06-22T04:31:36;97792.69;;;15.92;78.24
43741;BME280;29352;48.708;9.290;2023-06-22T04:34:04;97783.69;;;16.73;75.48
43741;BME280;29352;48.708;9.290;2023-06-22T04:36:40;97781.69;;;17.00;75.02
43741;BME280;29352;48.708;9.290;2023-06-22T04:39:10;97776.88;;;17.02;74.58
43741;BME280;29352;48.708;9.290;2023-06-22T04:41:40;97782.47;;;17.43;71.61
43741;BME280;29352;48.708;9.290;2023-06-22T04:44:10;97779.91;;;17.89;70.31
43741;BME280;29352;48.708;9.290;2023-06-22T04:46:37;97768.81;;;17.76;69.90
43741;BME280;29352;48.708;9.290;2023-06-22T04:49:07;97766.44;;;18.05;69.10
43741;BME280;29352;48.708;9.290;2023-06-22T04:51:39;97763.28;;;17.30;70.83
43741;BME280;29352;48.708;9.290;2023-06-22T04:54:07;97758.91;;;18.48;68.16
43741;BME280;29352;48.708;9.290;2023-06-22T04:56:34;97759.16;;;18.61;67.91
43741;BME280;29352;48.708;9.290;2023-06-22T04:59:00;97755.63;;;18.71;67.30
43741;BME280;29352;48.708;9.290;2023-06-22T05:01:26;97754.28;;;18.07;68.62
43741;BME280;29352;48.708;9.290;2023-06-22T05:03:52;97752.38;;;18.74;66.99
43741;BME280;29352;48.708;9.290;2023-06-22T05:06:22;97757.25;;;18.57;67.22
43741;BME280;29352;48.708;9.290;2023-06-22T05:08:54;97751.22;;;19.11;65.67
43741;BME280;29352;48.708;9.290;2023-06-22T05:11:25;97748.50;;;20.10;63.57
43741;BME280;29352;48.708;9.290;2023-06-22T05:13:52;97743.06;;;20.78;62.80
43741;BME280;29352;48.708;9.290;2023-06-22T05:16:19;97747.66;;;20.83;62.17
43741;BME280;29352;48.708;9.290;2023-06-22T05:18:50;97737.84;;;21.11;61.30
43741;BME280;29352;48.708;9.290;2023-06-22T05:21:17;97736.34;;;20.71;61.45
43741;BME280;29352;48.708;9.290;2023-06-22T05:23:43;97739.94;;;20.66;61.94
43741;BME280;29352;48.708;9.290;2023-06-22T05:26:09;97736.84;;;20.49;62.50
43741;BME280;29352;48.708;9.290;2023-06-22T05:28:35;97724.38;;;20.48;62.38
43741;BME280;29352;48.708;9.290;2023-06-22T05:31:00;97728.50;;;21.41;59.66
43741;BME280;29352;48.708;9.290;2023-06-22T05:33:26;97725.84;;;20.64;61.29
43741;BME280;29352;48.708;9.290;2023-06-22T05:35:51;97726.22;;;19.84;63.61
43741;BME280;29352;48.708;9.290;2023-06-22T05:38:17;97720.88;;;20.71;61.26
43741;BME280;29352;48.708;9.290;2023-06-22T05:40:42;97716.63;;;21.13;60.92
43741;BME280;29352;48.708;9.290;2023-06-22T05:43:08;97725.34;;;21.72;60.28
43741;BME280;29352;48.708;9.290;2023-06-22T05:45:33;97717.66;;;22.63;57.64
43741;BME280;29352;48.708;9.290;2023-06-22T05:47:58;97723.94;;;23.05;56.66
43741;BME280;29352;48.708;9.290;2023-06-22T05:50:24;97713.84;;;23.33;55.94
43741;BME280;29352;48.708;9.290;2023-06-22T05:52:49;97717.66;;;23.46;56.20
43741;BME280;29352;48.708;9.290;2023-06-22T05:55:15;97723.06;;;23.60;55.48
43741;BME280;29352;48.708;9.290;2023-06-22T05:57:40;97718.88;;;24.13;54.67
43741;BME280;29352;48.708;9.290;2023-06-22T06:00:06;97722.28;;;23.32;54.83
43741;BME280;29352;48.708;9.290;2023-06-22T06:02:35;97717.72;;;23.91;54.42
43741;BME280;29352;48.708;9.290;2023-06-22T06:05:01;97709.59;;;24.76;53.06
43741;BME280;29352;48.708;9.290;2023-06-22T06:07:28;97702.09;;;24.90;52.73
43741;BME280;29352;48.708;9.290;2023-06-22T06:09:54;97701.41;;;25.16;52.34
43741;BME280;29352;48.708;9.290;2023-06-22T06:12:20;97698.03;;;25.19;52.11
43741;BME280;29352;48.708;9.290;2023-06-22T06:14:45;97701.03;;;25.66;51.00
43741;BME280;29352;48.708;9.290;2023-06-22T06:17:12;97697.72;;;25.29;51.68
43741;BME280;29352;48.708;9.290;2023-06-22T06:19:37;97701.41;;;26.55;50.11
43741;BME280;29352;48.708;9.290;2023-06-22T06:22:03;97709.19;;;26.18;49.93
43741;BME280;29352;48.708;9.290;2023-06-22T06:24:28;97712.84;;;25.35;50.80
43741;BME280;29352;48.708;9.290;2023-06-22T06:26:54;97712.63;;;25.06;51.09
43741;BME280;29352;48.708;9.290;2023-06-22T06:29:20;97701.41;;;25.16;51.38
43741;BME280;29352;48.708;9.290;2023-06-22T06:31:45;97705.25;;;24.44;53.05
43741;BME280;29352;48.708;9.290;2023-06-22T06:34:11;97705.03;;;24.31;52.60
43741;BME280;29352;48.708;9.290;2023-06-22T06:36:36;97693.91;;;25.30;51.52
43741;BME280;29352;48.708;9.290;2023-06-22T06:39:02;97694.72;;;25.48;50.80
43741;BME280;29352;48.708;9.290;2023-06-22T06:41:28;97694.41;;;25.84;50.49
43741;BME280;29352;48.708;9.290;2023-06-22T06:43:54;97695.28;;;24.39;52.60
43741;BME280;29352;48.708;9.290;2023-06-22T06:46:19;97705.03;;;26.12;49.92
43741;BME280;29352;48.708;9.290;2023-06-22T06:48:45;97702.81;;;27.08;48.77
43741;BME280;29352;48.708;9.290;2023-06-22T06:51:10;97702.50;;;27.01;48.67
43741;BME280;29352;48.708;9.290;2023-06-22T06:53:37;97700.13;;;27.20;48.49
43741;BME280;29352;48.708;9.290;2023-06-22T06:56:03;97699.50;;;27.86;47.98
43741;BME280;29352;48.708;9.290;2023-06-22T06:58:30;97691.00;;;28.00;46.52
43741;BME280;29352;48.708;9.290;2023-06-22T07:00:56;97694.47;;;27.97;46.38
43741;BME280;29352;48.708;9.290;2023-06-22T07:03:21;97691.50;;;27.81;46.85
43741;BME280;29352;48.708;9.290;2023-06-22T07:05:47;97696.31;;;27.63;47.30
43741;BME280;29352;48.708;9.290;2023-06-22T07:08:13;97683.00;;;28.86;45.74
43741;BME280;29352;48.708;9.290;2023-06-22T07:10:38;97691.38;;;27.77;46.19
43741;BME280;29352;48.708;9.290;2023-06-22T07:13:04;97691.53;;;27.30;47.06
43741;BME280;29352;48.708;9.290;2023-06-22T07:15:29;97692.09;;;26.85;47.87
43741;BME280;29352;48.708;9.290;2023-06-22T07:17:54;97681.59;;;27.68;46.84
43741;BME280;29352;48.708;9.290;2023-06-22T07:20:20;97679.81;;;27.00;48.03
43741;BME280;29352;48.708;9.290;2023-06-22T07:22:45;97683.06;;;26.85;47.49
43741;BME280;29352;48.708;9.290;2023-06-22T07:25:11;97672.94;;;27.66;46.90
43741;BME280;29352;48.708;9.290;2023-06-22T07:27:46;97662.88;;;28.82;45.13
43741;BME280;29352;48.708;9.290;2023-06-22T07:30:26;97674.44;;;25.06;50.03
43741;BME280;29352;48.708;9.290;2023-06-22T07:32:52;97665.09;;;27.13;48.33
43741;BME280;29352;48.708;9.290;2023-06-22T07:35:18;97652.63;;;27.46;47.10
43741;BME280;29352;48.708;9.290;2023-06-22T07:37:44;97645.13;;;26.75;48.32
43741;BME280;29352;48.708;9.290;2023-06-22T07:40:11;97642.34;;;27.13;47.39
43741;BME280;29352;48.708;9.290;2023-06-22T07:42:36;97644.94;;;26.50;49.04
43741;BME280;29352;48.708;9.290;2023-06-22T07:45:03;97637.47;;;27.48;46.83
43741;BME280;29352;48.708;9.290;2023-06-22T07:47:30;97631.03;;;28.81;45.89
43741;BME280;29352;48.708;9.290;2023-06-22T07:49:59;97624.53;;;27.07;47.46
43741;BME280;29352;48.708;9.290;2023-06-22T07:52:27;97615.19;;;28.04;46.29
43741;BME280;29352;48.708;9.290;2023-06-22T07:54:53;97616.81;;;28.29;46.53
43741;BME280;29352;48.708;9.290;2023-06-22T07:57:19;97613.31;;;27.42;47.35
43741;BME280;29352;48.708;9.290;2023-06-22T07:59:45;97598.56;;;28.58;46.15
43741;BME280;29352;48.708;9.290;2023-06-22T08:02:11;97624.81;;;25.38;50.60
43741;BME280;29352;48.708;9.290;2023-06-22T08:04:36;97619.03;;;25.31;51.27
43741;BME280;29352;48.708;9.290;2023-06-22T08:07:02;97613.88;;;25.99;50.29
43741;BME280;29352;48.708;9.290;2023-06-22T08:09:31;97606.59;;;26.21;49.33
43741;BME280;29352;48.708;9.290;2023-06-22T08:11:58;97602.50;;;26.95;48.77
43741;BME280;29352;48.708;9.290;2023-06-22T08:14:26;97610.72;;;26.95;48.58
43741;BME280;29352;48.708;9.290;2023-06-22T08:16:52;97613.84;;;27.89;47.64
43741;BME280;29352;48.708;9.290;2023-06-22T08:19:17;97619.59;;;27.42;49.11
43741;BME280;29352;48.708;9.290;2023-06-22T08:21:43;97615.34;;;29.06;46.69
43741;BME280;29352;48.708;9.290;2023-06-22T08:24:09;97634.69;;;29.09;46.38
43741;BME280;29352;48.708;9.290;2023-06-22T08:26:34;97645.25;;;28.95;46.30
43741;BME280;29352;48.708;9.290;2023-06-22T08:29:05;97647.09;;;29.84;45.11
43741;BME280;29352;48.708;9.290;2023-06-22T08:31:30;97645.94;;;30.76;44.62
43741;BME280;29352;48.708;9.290;2023-06-22T08:33:57;97659.09;;;30.51;44.60
43741;BME280;29352;48.708;9.290;2023-06-22T08:36:22;97664.50;;;30.95;44.44
43741;BME280;29352;48.708;9.290;2023-06-22T08:38:48;97655.25;;;31.03;44.39
43741;BME280;29352;48.708;9.290;2023-06-22T08:41:16;97674.44;;;31.16;43.83
43741;BME280;29352;48.708;9.290;2023-06-22T08:43:43;97679.03;;;30.16;45.47
43741;BME280;29352;48.708;9.290;2023-06-22T08:46:10;97689.63;;;28.97;46.15
43741;BME280;29352;48.708;9.290;2023-06-22T08:48:36;97688.22;;;28.54;46.92
43741;BME280;29352;48.708;9.290;2023-06-22T08:51:02;97682.38;;;28.43;47.47
43741;BME280;29352;48.708;9.290;2023-06-22T08:53:28;97681.25;;;28.23;47.09
43741;BME280;29352;48.708;9.290;2023-06-22T08:55:54;97685.13;;;28.56;47.01
43741;BME280;29352;48.708;9.290;2023-06-22T08:58:19;97686.38;;;28.46;46.41
43741;BME280;29352;48.708;9.290;2023-06-22T09:00:46;97669.66;;;29.49;46.01
43741;BME280;29352;48.708;9.290;2023-06-22T09:03:13;97668.22;;;28.20;47.29
43741;BME280;29352;48.708;9.290;2023-06-22T09:05:38;97671.25;;;26.08;49.69
43741;BME280;29352;48.708;9.290;2023-06-22T09:08:04;97663.78;;;26.81;48.90
43741;BME280;29352;48.708;9.290;2023-06-22T09:10:30;97663.88;;;28.52;46.71
43741;BME280;29352;48.708;9.290;2023-06-22T09:12:56;97657.56;;;27.52;47.70
43741;BME280;29352;48.708;9.290;2023-06-22T09:15:22;97656.81;;;28.30;47.51
43741;BME280;29352;48.708;9.290;2023-06-22T09:17:48;97657.28;;;30.11;45.62
43741;BME280;29352;48.708;9.290;2023-06-22T09:20:14;97642.91;;;29.74;46.36
43741;BME280;29352;48.708;9.290;2023-06-22T09:22:40;97653.25;;;27.43;48.18
43741;BME280;29352;48.708;9.290;2023-06-22T09:25:05;97655.88;;;29.89;45.66
43741;BME280;29352;48.708;9.290;2023-06-22T09:27:32;97655.88;;;30.97;43.92
43741;BME280;29352;48.708;9.290;2023-06-22T09:29:57;97658.97;;;30.16;44.92
43741;BME280;29352;48.708;9.290;2023-06-22T09:32:24;97649.91;;;29.72;44.94
43741;BME280;29352;48.708;9.290;2023-06-22T09:34:50;97638.41;;;29.82;46.25
43741;BME280;29352;48.708;9.290;2023-06-22T09:37:16;97638.09;;;29.31;46.51
43741;BME280;29352;48.708;9.290;2023-06-22T09:39:41;97646.09;;;29.36;46.92
43741;BME280;29352;48.708;9.290;2023-06-22T09:42:07;97655.06;;;29.08;47.85
43741;BME280;29352;48.708;9.290;2023-06-22T09:44:33;97646.81;;;28.71;47.73
43741;BME280;29352;48.708;9.290;2023-06-22T09:46:58;97635.13;;;29.36;47.42
43741;BME280;29352;48.708;9.290;2023-06-22T09:49:25;97628.28;;;28.44;49.01
43741;BME280;29352;48.708;9.290;2023-06-22T09:51:50;97623.28;;;28.46;48.77
43741;BME280;29352;48.708;9.290;2023-06-22T09:54:17;97625.03;;;29.40;47.36
43741;BME280;29352;48.708;9.290;2023-06-22T09:56:43;97630.59;;;28.42;48.84
43741;BME280;29352;48.708;9.290;2023-06-22T09:59:08;97625.31;;;28.61;47.59
43741;BME280;29352;48.708;9.290;2023-06-22T10:01:34;97627.97;;;28.94;46.83
43741;BME280;29352;48.708;9.290;2023-06-22T10:03:59;97621.09;;;28.51;48.26
43741;BME280;29352;48.708;9.290;2023-06-22T10:06:24;97614.06;;;28.29;48.64
43741;BME280;29352;48.708;9.290;2023-06-22T10:08:53;97611.78;;;29.30;47.86
43741;BME280;29352;48.708;9.290;2023-06-22T10:11:18;97607.91;;;27.54;48.73
43741;BME280;29352;48.708;9.290;2023-06-22T10:13:44;97607.47;;;26.33;50.22
43741;BME280;29352;48.708;9.290;2023-06-22T10:16:09;97605.84;;;27.51;48.80
43741;BME280;29352;48.708;9.290;2023-06-22T10:18:35;97599.94;;;26.98;49.89
43741;BME280;29352;48.708;9.290;2023-06-22T10:21:00;97580.31;;;27.59;48.65
43741;BME280;29352;48.708;9.290;2023-06-22T10:23:27;97579.47;;;27.04;50.02
43741;BME280;29352;48.708;9.290;2023-06-22T10:25:52;97582.06;;;27.22;49.08
43741;BME280;29352;48.708;9.290;2023-06-22T10:28:17;97581.03;;;27.26;49.44
43741;BME280;29352;48.708;9.290;2023-06-22T10:30:43;97576.22;;;27.23;49.36
43741;BME280;29352;48.708;9.290;2023-06-22T10:33:10;97572.13;;;27.17;50.01
43741;BME280;29352;48.708;9.290;2023-06-22T10:35:37;97573.06;;;26.92;49.83
43741;BME280;29352;48.708;9.290;2023-06-22T10:38:03;97568.75;;;26.61;50.24
43741;BME280;29352;48.708;9.290;2023-06-22T10:40:30;97560.66;;;27.36;50.06
43741;BME280;29352;48.708;9.290;2023-06-22T10:42:56;97571.28;;;25.89;51.47
43741;BME280;29352;48.708;9.290;2023-06-22T10:45:22;97565.25;;;25.40;52.33
43741;BME280;29352;48.708;9.290;2023-06-22T10:47:47;97573.22;;;24.93;53.59
43741;BME280;29352;48.708;9.290;2023-06-22T10:50:13;97560.53;;;24.80;53.63
43741;BME280;29352;48.708;9.290;2023-06-22T10:52:39;97556.69;;;25.77;52.26
43741;BME280;29352;48.708;9.290;2023-06-22T10:55:07;97557.66;;;26.57;51.07
43741;BME280;29352;48.708;9.290;2023-06-22T10:57:33;97564.31;;;26.77;50.45
43741;BME280;29352;48.708;9.290;2023-06-22T10:59:59;97554.50;;;26.17;51.58
43741;BME280;29352;48.708;9.290;2023-06-22T11:02:24;97566.25;;;26.09;51.00
43741;BME280;29352;48.708;9.290;2023-06-22T11:04:50;97552.78;;;26.33;50.95
43741;BME280;29352;48.708;9.290;2023-06-22T11:07:15;97552.78;;;26.33;50.90
43741;BME280;29352;48.708;9.290;2023-06-22T11:09:43;97548.16;;;26.25;51.19
43741;BME280;29352;48.708;9.290;2023-06-22T11:12:09;97555.88;;;25.76;51.30
43741;BME280;29352;48.708;9.290;2023-06-22T11:14:34;97544.50;;;26.51;50.90
43741;BME280;29352;48.708;9.290;2023-06-22T11:17:00;97552.06;;;27.04;50.51
43741;BME280;29352;48.708;9.290;2023-06-22T11:19:25;97557.53;;;26.54;51.42
43741;BME280;29352;48.708;9.290;2023-06-22T11:21:51;97562.97;;;26.24;52.20
43741;BME280;29352;48.708;9.290;2023-06-22T11:24:17;97565.28;;;26.13;52.05
43741;BME280;29352;48.708;9.290;2023-06-22T11:26:42;97562.69;;;26.55;51.15
43741;BME280;29352;48.708;9.290;2023-06-22T11:29:08;97559.56;;;25.80;51.73
43741;BME280;29352;48.708;9.290;2023-06-22T11:31:34;97565.84;;;26.28;51.59
43741;BME280;29352;48.708;9.290;2023-06-22T11:34:01;97560.38;;;24.94;52.51
43741;BME280;29352;48.708;9.290;2023-06-22T11:36:27;97562.78;;;25.73;52.32
43741;BME280;29352;48.708;9.290;2023-06-22T11:38:57;97552.56;;;26.09;51.59
43741;BME280;29352;48.708;9.290;2023-06-22T11:41:23;97530.72;;;26.68;50.23
43741;BME280;29352;48.708;9.290;2023-06-22T11:43:48;97526.63;;;27.25;49.44
43741;BME280;29352;48.708;9.290;2023-06-22T11:46:14;97521.00;;;26.79;50.08
43741;BME280;29352;48.708;9.290;2023-06-22T11:48:39;97537.31;;;25.99;51.17
43741;BME280;29352;48.708;9.290;2023-06-22T11:51:05;97540.47;;;25.45;51.06
43741;BME280;29352;48.708;9.290;2023-06-22T11:53:31;97536.34;;;26.42;49.85
43741;BME280;29352;48.708;9.290;2023-06-22T11:55:57;97542.69;;;26.84;49.29
43741;BME280;29352;48.708;9.290;2023-06-22T11:58:22;97540.47;;;26.57;49.42
43741;BME280;29352;48.708;9.290;2023-06-22T12:00:48;97553.63;;;26.63;49.43
43741;BME280;29352;48.708;9.290;2023-06-22T12:03:15;97551.88;;;26.59;49.39
43741;BME280;29352;48.708;9.290;2023-06-22T12:05:41;97549.06;;;25.91;51.73
43741;BME280;29352;48.708;9.290;2023-06-22T12:08:07;97553.50;;;26.13;51.40
43741;BME280;29352;48.708;9.290;2023-06-22T12:10:32;97543.06;;;25.68;51.64
43741;BME280;29352;48.708;9.290;2023-06-22T12:12:58;97522.47;;;27.19;49.25
43741;BME280;29352;48.708;9.290;2023-06-22T12:15:25;97520.34;;;27.91;48.56
43741;BME280;29352;48.708;9.290;2023-06-22T12:17:51;97526.75;;;28.32;47.20
43741;BME280;29352;48.708;9.290;2023-06-22T12:20:17;97517.28;;;28.53;47.25
43741;BME280;29352;48.708;9.290;2023-06-22T12:22:43;97526.28;;;28.05;47.16
43741;BME280;29352;48.708;9.290;2023-06-22T12:25:09;97524.69;;;27.25;49.19
43741;BME280;29352;48.708;9.290;2023-06-22T12:27:36;97526.47;;;27.88;47.83
43741;BME280;29352;48.708;9.290;2023-06-22T12:30:03;97529.63;;;28.11;47.71
43741;BME280;29352;48.708;9.290;2023-06-22T12:32:30;97527.78;;;28.02;48.46
43741;BME280;29352;48.708;9.290;2023-06-22T12:34:56;97537.94;;;28.02;48.54
43741;BME280;29352;48.708;9.290;2023-06-22T12:37:22;97546.41;;;27.97;47.84
43741;BME280;29352;48.708;9.290;2023-06-22T12:39:48;97554.69;;;27.01;49.64
43741;BME280;29352;48.708;9.290;2023-06-22T12:42:15;97566.56;;;27.47;48.73
43741;BME280;29352;48.708;9.290;2023-06-22T12:44:41;97577.75;;;27.54;49.42
43741;BME280;29352;48.708;9.290;2023-06-22T12:47:07;97587.38;;;27.39;49.45
43741;BME280;29352;48.708;9.290;2023-06-22T12:49:36;97585.19;;;27.32;49.24
43741;BME280;29352;48.708;9.290;2023-06-22T12:52:02;97588.84;;;27.36;50.02
43741;BME280;29352;48.708;9.290;2023-06-22T12:54:28;97585.53;;;27.10;51.57
43741;BME280;29352;48.708;9.290;2023-06-22T12:56:55;97575.59;;;26.76;51.41
43741;BME280;29352;48.708;9.290;2023-06-22T12:59:20;97580.19;;;27.13;51.41
43741;BME280;29352;48.708;9.290;2023-06-22T13:01:46;97579.47;;;27.46;50.07
43741;BME280;29352;48.708;9.290;2023-06-22T13:04:12;97574.84;;;27.38;50.90
43741;BME280;29352;48.708;9.290;2023-06-22T13:06:41;97560.72;;;26.85;51.58
43741;BME280;29352;48.708;9.290;2023-06-22T13:09:07;97556.25;;;26.81;51.97